Time;durP1;ratioP1;P1;durP2;ratioP2;P2;SDS_P1;SDS_P2;PMS_P1;PMS_P2;Temp;Humidity;BMP_temperature;BMP_pressure;BME280_temperature;BME280_humidity;BME280_pressure;Samples;Min_cycle;Max_cycle;Signal;HPM_P1;HPM_P2
2023/08/30 09:38:19;;;;;;;19.02;12.63;;;;;;;19.71;93.84;99163.59;1867864;76;27322;-68
2023/08/30 09:40:47;;;;;;;107.55;97.33;;;;;;;19.58;94.51;99146.78;1824577;78;25513;-67
2023/08/30 09:43:17;;;;;;;90.72;84.05;;;;;;;19.53;95.28;99138.40;1824480;78;27464;-68
2023/08/30 09:45:44;;;;;;;84.90;78.83;;;;;;;19.49;95.65;99134.09;1824439;78;25594;-73
2023/08/30 09:48:11;;;;;;;80.97;75.00;;;;;;;19.45;96.16;99139.59;1786979;78;25405;-70
2023/08/30 09:50:40;;;;;;;83.37;77.27;;;;;;;19.38;95.94;99133.55;1824455;78;25482;-71
2023/08/30 09:53:10;;;;;;;82.15;76.17;;;;;;;19.32;95.60;99142.57;1824511;78;25392;-72
2023/08/30 09:55:37;;;;;;;81.82;75.32;;;;;;;19.24;95.69;99145.94;1824483;78;27452;-71
2023/08/30 09:58:06;;;;;;;75.40;69.92;;;;;;;19.20;96.07;99146.52;1824192;78;25503;-71
2023/08/30 10:00:35;;;;;;;56.53;52.48;;;;;;;19.12;96.12;99152.61;1824437;78;25592;-73
2023/08/30 10:03:02;;;;;;;88.58;82.47;;;;;;;19.05;95.98;99162.19;1824546;77;25589;-73
2023/08/30 10:05:31;;;;;;;80.12;74.75;;;;;;;19.00;96.26;99161.22;1824516;78;25607;-73
2023/08/30 10:08:10;;;;;;;77.08;72.15;;;;;;;18.94;96.59;99164.95;1824561;77;27290;-73
2023/08/30 10:10:41;;;;;;;78.55;73.17;;;;;;;18.90;97.05;99157.91;1824222;78;25302;-72
2023/08/30 10:13:11;;;;;;;95.83;90.40;;;;;;;18.85;97.25;99163.21;1824663;78;25320;-73
2023/08/30 10:15:44;;;;;;;75.40;70.50;;;;;;;18.80;97.68;99158.09;1824710;78;25315;-72
2023/08/30 10:18:15;;;;;;;91.50;86.28;;;;;;;18.75;97.70;99153.02;1825103;78;25487;-70
2023/08/30 10:20:45;;;;;;;56.45;54.13;;;;;;;18.67;97.56;99152.22;1824718;78;27345;-71
2023/08/30 10:36:03;;;;;;;9.00;8.60;;;;;;;18.65;98.84;99151.84;1852726;77;27868;-72
2023/08/30 10:38:32;;;;;;;70.87;66.50;;;;;;;18.51;99.36;99132.64;1806712;78;25601;-72
2023/08/30 10:41:06;;;;;;;;;;;;;;;18.47;99.65;99144.97;1828429;78;27535;-69
2023/08/30 10:43:37;;;;;;;12.53;10.65;;;;;;;17.83;99.87;99047.92;1826426;78;25531;-68
2023/08/30 10:46:11;;;;;;;77.65;73.05;;;;;;;18.40;100.00;99161.39;1794492;78;25375;-66
2023/08/30 10:48:41;;;;;;;72.12;67.67;;;;;;;18.36;100.00;99162.76;1826304;78;25302;-73
2023/08/30 10:51:37;;;;;;;50.80;47.70;;;;;;;18.36;100.00;99159.25;1826240;78;25505;-66
2023/08/30 10:54:17;;;;;;;70.15;66.02;;;;;;;;;;1826255;78;27436;-66
2023/08/30 10:56:57;;;;;;;72.10;66.62;;;;;;;;;;1826140;78;25458;-67
2023/08/30 10:59:24;;;;;;;54.00;50.30;;;;;;;;;;1826257;78;25506;-69
2023/08/30 11:01:55;;;;;;;78.72;73.90;;;;;;;;;;1826312;78;25397;-66
2023/08/30 11:04:23;;;;;;;70.78;66.45;;;;;;;;;;1826181;78;25419;-67
2023/08/30 11:06:51;;;;;;;6.60;6.22;;;;;;;;;;1826164;78;27469;-66
2023/08/30 11:09:20;;;;;;;2.58;2.50;;;;;;;;;;1826098;78;25676;-66
2023/08/30 11:11:47;;;;;;;1.65;1.65;;;;;;;;;;1826163;78;25283;-66
2023/08/30 11:14:15;;;;;;;1.53;1.53;;;;;;;;;;1826428;78;25468;-66
2023/08/30 11:16:43;;;;;;;56.98;53.05;;;;;;;;;;1826322;78;25275;-68
2023/08/30 11:19:11;;;;;;;3.45;3.27;;;;;;;;;;1826281;78;27412;-67
2023/08/30 11:21:40;;;;;;;69.80;65.80;;;;;;;;;;1826085;78;25483;-67
2023/08/30 11:24:07;;;;;;;;;;;;;;;;;;1796776;78;25309;-67
2023/08/30 11:26:35;;;;;;;73.37;69.07;;;;;;;;;;1826198;78;26317;-67
2023/08/30 11:29:09;;;;;;;75.10;70.52;;;;;;;;;;1826229;78;25327;-68
2023/08/30 11:31:36;;;;;;;75.40;70.95;;;;;;;;;;1826170;78;27409;-66
2023/08/30 11:34:04;;;;;;;74.90;70.47;;;;;;;;;;1826007;78;25485;-66
2023/08/30 11:36:32;;;;;;;73.12;68.78;;;;;;;;;;1825694;78;25400;-65
2023/08/30 11:39:00;;;;;;;74.03;69.53;;;;;;;;;;1825666;78;25761;-66
2023/08/30 11:41:27;;;;;;;73.00;68.60;;;;;;;;;;1825623;78;25284;-67
2023/08/30 11:43:55;;;;;;;73.37;68.97;;;;;;;;;;1825811;78;27431;-66
2023/08/30 11:46:23;;;;;;;74.75;70.25;;;;;;;;;;1825503;78;25486;-66
2023/08/30 11:48:52;;;;;;;74.22;69.75;;;;;;;;;;1825638;78;25392;-66
2023/08/30 11:51:20;;;;;;;;;;;;;;;;;;1828245;78;25435;-66
2023/08/30 11:53:49;;;;;;;75.75;71.15;;;;;;;;;;1825620;78;25282;-65
2023/08/30 11:56:16;;;;;;;75.30;70.77;;;;;;;;;;1825824;78;28021;-66
2023/08/30 11:58:45;;;;;;;75.62;71.02;;;;;;;;;;1825484;78;25496;-66
2023/08/30 12:01:13;;;;;;;75.63;70.73;;;;;;;;;;1825850;78;25303;-66
2023/08/30 12:03:40;;;;;;;74.92;70.25;;;;;;;;;;1825513;78;25521;-66
2023/08/30 12:06:15;;;;;;;76.05;71.40;;;;;;;;;;1825631;78;25289;-68
2023/08/30 12:08:40;;;;;;;76.45;71.45;;;;;;;;;;1824077;78;27383;-68
2023/08/30 12:11:20;;;;;;;75.32;70.60;;;;;;;;;;1825489;78;25453;-67
2023/08/30 12:13:48;;;;;;;77.30;72.50;;;;;;;;;;1793604;78;25390;-69
2023/08/30 12:16:20;;;;;;;78.07;73.10;;;;;;;;;;1824711;78;25521;-70
2023/08/30 12:18:47;;;;;;;74.05;69.27;;;;;;;;;;1825599;78;25295;-70
2023/08/30 12:24:05;;;;;;;75.78;70.95;;;;;;;;;;1825617;78;25321;-70
2023/08/30 12:26:33;;;;;;;76.25;71.30;;;;;;;;;;1825675;78;25345;-68
2023/08/30 12:29:00;;;;;;;79.90;74.75;;;;;;;;;;1825516;78;25810;-69
2023/08/30 12:31:27;;;;;;;77.55;72.58;;;;;;;;;;1825568;78;25470;-69
2023/08/30 12:33:55;;;;;;;78.00;72.90;;;;;;;;;;1825532;78;27436;-69
2023/08/30 12:36:21;;;;;;;77.80;72.78;;;;;;;;;;1824087;78;25682;-68
2023/08/30 12:49:56;;;;;;;6.85;5.87;;;;;;;18.58;100.00;99180.00;1868321;76;25435;-58
2023/08/30 12:52:22;;;;;;;8.13;6.05;;;;;;;18.47;100.00;99179.19;1755602;81;25626;-57
2023/08/30 12:54:49;;;;;;;9.88;6.12;;;;;;;18.52;100.00;99178.80;1775627;80;27504;-58
2023/08/30 12:57:15;;;;;;;8.25;4.78;;;;;;;18.57;100.00;99182.52;1756985;81;25553;-58
2023/08/30 12:59:41;;;;;;;8.03;4.90;;;;;;;18.61;100.00;99186.63;1777150;80;25509;-55
2023/08/30 13:02:08;;;;;;;7.53;6.00;;;;;;;18.67;100.00;99186.45;1776868;80;25472;-59
2023/08/30 13:04:37;;;;;;;5.22;4.12;;;;;;;18.71;100.00;99188.62;1777127;80;25449;-59
2023/08/30 13:07:05;;;;;;;6.50;4.22;;;;;;;18.71;100.00;99190.56;1777213;80;27097;-53
2023/08/30 13:09:31;;;;;;;4.22;3.70;;;;;;;18.79;100.00;99188.02;1756840;81;25711;-57
2023/08/30 13:11:57;;;;;;;4.17;3.77;;;;;;;18.84;100.00;99185.70;1777001;80;25608;-57
2023/08/30 13:14:24;;;;;;;4.40;3.52;;;;;;;18.91;100.00;99184.91;1776912;80;25800;-56
2023/08/30 13:16:50;;;;;;;7.15;4.37;;;;;;;18.96;100.00;99190.00;1777073;79;25590;-58
2023/08/30 13:19:20;;;;;;;5.35;3.85;;;;;;;19.02;100.00;99175.34;1777141;80;27481;-56
2023/08/30 13:21:46;;;;;;;7.30;4.85;;;;;;;19.07;100.00;99175.50;1776864;80;25358;-57
2023/08/30 13:24:12;;;;;;;6.03;4.15;;;;;;;19.09;100.00;99167.70;1756865;81;25645;-57
2023/08/30 13:26:38;;;;;;;5.53;4.10;;;;;;;19.09;100.00;99164.36;1776927;80;25549;-57
2023/08/30 13:29:04;;;;;;;4.85;4.17;;;;;;;19.13;100.00;99166.49;1776966;79;25626;-58
2023/08/30 13:31:30;;;;;;;5.78;4.83;;;;;;;19.10;100.00;99168.64;1776915;80;27414;-57
2023/08/30 13:33:56;;;;;;;6.00;4.90;;;;;;;19.09;100.00;99171.80;1776797;80;25652;-58
2023/08/30 13:36:23;;;;;;;6.78;5.35;;;;;;;19.11;100.00;99165.34;1756897;81;25384;-57
2023/08/30 13:38:49;;;;;;;8.18;5.65;;;;;;;19.11;100.00;99155.15;1776830;80;27354;-57
2023/08/30 13:41:15;;;;;;;5.62;4.95;;;;;;;19.13;100.00;99149.27;1776928;80;25554;-58
2023/08/30 13:43:41;;;;;;;8.50;6.05;;;;;;;19.15;100.00;99152.40;1776903;80;27543;-56
2023/08/30 13:46:07;;;;;;;11.40;6.40;;;;;;;19.22;100.00;99157.29;1776848;79;25437;-57
2023/08/30 13:48:34;;;;;;;9.80;6.45;;;;;;;19.29;100.00;99159.23;1756632;81;25632;-57
2023/08/30 13:51:00;;;;;;;8.43;6.50;;;;;;;19.38;100.00;99166.45;1776911;80;25438;-55
2023/08/30 13:53:26;;;;;;;14.03;8.20;;;;;;;19.42;100.00;99166.44;1777011;80;25597;-57
2023/08/30 13:55:52;;;;;;;11.60;7.95;;;;;;;19.48;100.00;99165.42;1756790;81;28148;-56
2023/08/30 13:58:18;;;;;;;12.00;7.65;;;;;;;19.53;100.00;99158.16;1776821;80;25563;-57
2023/08/30 14:00:46;;;;;;;11.45;8.50;;;;;;;19.52;100.00;99150.53;1756340;81;25629;-53
2023/08/30 14:03:12;;;;;;;13.03;8.25;;;;;;;19.57;100.00;99148.75;1776290;80;27349;-57
2023/08/30 14:05:41;;;;;;;13.00;8.73;;;;;;;19.54;100.00;99148.17;1756327;81;25390;-54
2023/08/30 14:08:09;;;;;;;10.80;8.25;;;;;;;19.53;100.00;99150.73;1776337;80;27477;-56
2023/08/30 14:10:35;;;;;;;10.30;7.90;;;;;;;19.52;100.00;99147.02;1776301;80;25463;-54
2023/08/30 14:13:01;;;;;;;10.80;8.38;;;;;;;19.52;100.00;99151.91;1776303;80;25514;-57
2023/08/30 14:15:27;;;;;;;13.70;8.50;;;;;;;19.53;100.00;99160.91;1776429;80;25437;-57
2023/08/30 14:17:54;;;;;;;13.58;8.35;;;;;;;19.46;100.00;99165.05;1776378;80;25608;-55
2023/08/30 14:20:20;;;;;;;13.62;9.03;;;;;;;19.44;100.00;99170.16;1756355;81;27612;-56
2023/08/30 14:22:46;;;;;;;12.45;9.05;;;;;;;19.43;100.00;99172.69;1776336;80;25674;-58
2023/08/30 14:25:12;;;;;;;11.50;8.53;;;;;;;19.43;100.00;99168.58;1776296;80;25389;-54
2023/08/30 14:27:40;;;;;;;14.30;9.80;;;;;;;19.49;100.00;99163.66;1776302;79;25523;-54
2023/08/30 14:30:11;;;;;;;13.98;9.78;;;;;;;19.65;100.00;99164.61;1776292;80;25595;-56
2023/08/30 14:32:37;;;;;;;14.35;8.40;;;;;;;19.78;100.00;99170.45;1776433;80;27625;-59
2023/08/30 14:35:08;;;;;;;12.95;10.30;;;;;;;19.95;100.00;99168.23;1776328;80;25720;-56
2023/08/30 14:37:36;;;;;;;14.60;10.53;;;;;;;20.25;100.00;99167.48;1776473;80;25546;-58
2023/08/30 14:40:08;;;;;;;15.00;10.82;;;;;;;20.46;100.00;99174.18;1756431;81;27279;-57
2023/08/30 14:42:36;;;;;;;15.18;10.55;;;;;;;20.55;100.00;99176.50;1776564;80;25140;-56
2023/08/30 14:45:06;;;;;;;11.83;8.93;;;;;;;20.58;100.00;99183.14;1744607;80;27412;-56
2023/08/30 14:47:38;;;;;;;13.03;8.58;;;;;;;20.56;100.00;99185.52;1775637;80;25553;-57
2023/08/30 14:50:08;;;;;;;12.60;8.53;;;;;;;20.56;100.00;99185.52;1789775;80;25931;-55
2023/08/30 14:52:35;;;;;;;8.60;7.47;;;;;;;20.57;100.00;99189.80;1761873;81;25562;-55
2023/08/30 14:55:01;;;;;;;10.45;8.03;;;;;;;20.56;100.00;99196.50;1793214;80;25533;-55
2023/08/30 14:57:29;;;;;;;10.10;8.20;;;;;;;20.53;100.00;99197.50;1761790;81;28975;-56
2023/08/30 14:59:55;;;;;;;10.63;7.95;;;;;;;20.51;100.00;99199.84;1793188;80;25632;-56
2023/08/30 15:02:22;;;;;;;9.58;7.75;;;;;;;20.43;100.00;99196.98;1761886;81;25639;-56
2023/08/30 15:04:53;;;;;;;10.78;7.85;;;;;;;20.39;100.00;99204.44;1793192;80;25693;-55
2023/08/30 15:07:19;;;;;;;9.38;6.95;;;;;;;20.33;100.00;99210.19;1761953;81;25579;-55
2023/08/30 15:09:45;;;;;;;7.00;6.20;;;;;;;20.23;100.00;99206.31;1793159;80;28182;-57
2023/08/30 15:12:11;;;;;;;9.25;7.10;;;;;;;20.13;100.00;99212.05;1761789;81;25388;-57
2023/08/30 15:14:41;;;;;;;8.68;6.97;;;;;;;20.06;100.00;99223.66;1793239;80;25382;-57
2023/08/30 15:17:12;;;;;;;9.08;6.83;;;;;;;19.96;100.00;99230.16;1761831;81;25565;-56
2023/08/30 15:19:39;;;;;;;9.65;7.22;;;;;;;19.92;100.00;99236.83;1793360;80;25429;-57
2023/08/30 15:22:05;;;;;;;9.35;7.28;;;;;;;19.86;100.00;99230.97;1761854;81;27523;-56
2023/08/30 15:24:31;;;;;;;10.80;7.40;;;;;;;19.81;100.00;99227.88;1793078;80;25716;-56
2023/08/30 15:26:57;;;;;;;11.33;6.87;;;;;;;19.73;100.00;99229.81;1761768;81;25522;-55
2023/08/30 15:29:23;;;;;;;10.32;7.42;;;;;;;19.69;100.00;99223.56;1793124;80;25804;-58
2023/08/30 15:31:51;;;;;;;8.05;7.17;;;;;;;19.65;100.00;99227.69;1761810;81;25606;-57
2023/08/30 15:34:21;;;;;;;9.68;7.58;;;;;;;19.60;100.00;99228.88;1793220;80;27448;-57
2023/08/30 15:36:47;;;;;;;11.73;7.20;;;;;;;19.58;100.00;99229.06;1761915;81;25434;-57
2023/08/30 15:39:17;;;;;;;8.65;7.35;;;;;;;19.57;100.00;99237.11;1773203;80;25893;-56
2023/08/30 15:41:46;;;;;;;8.50;7.33;;;;;;;19.53;100.00;99226.16;1761839;81;25384;-57
2023/08/30 15:44:12;;;;;;;17.12;13.98;;;;;;;19.50;100.00;99222.83;1793259;80;25453;-57
2023/08/30 15:46:39;;;;;;;12.98;11.22;;;;;;;19.49;100.00;99231.45;1761829;81;27569;-57
2023/08/30 15:49:05;;;;;;;11.78;10.53;;;;;;;19.49;100.00;99232.81;1788366;80;25436;-58
2023/08/30 15:51:33;;;;;;;11.75;9.68;;;;;;;19.43;100.00;99228.90;1776223;80;25384;-59
2023/08/30 15:54:00;;;;;;;15.23;8.68;;;;;;;19.38;100.00;99229.51;1776258;80;25626;-60
2023/08/30 15:56:27;;;;;;;8.63;7.70;;;;;;;19.36;100.00;99229.13;1776340;80;25570;-60
2023/08/30 15:58:53;;;;;;;13.32;8.30;;;;;;;19.35;100.00;99224.80;1776184;80;27573;-59
2023/08/30 16:01:20;;;;;;;11.00;7.62;;;;;;;19.32;100.00;99221.48;1776240;79;25582;-60
2023/08/30 16:03:49;;;;;;;9.63;7.97;;;;;;;19.28;100.00;99219.94;1776301;80;25407;-59
2023/08/30 16:06:15;;;;;;;10.32;6.90;;;;;;;19.27;100.00;99216.39;1756302;81;25674;-62
2023/08/30 16:08:42;;;;;;;12.25;7.85;;;;;;;19.25;100.00;99222.09;1776397;80;25538;-62
2023/08/30 16:11:08;;;;;;;12.35;9.10;;;;;;;19.22;100.00;99229.13;1756262;81;28067;-60
2023/08/30 16:13:36;;;;;;;11.45;8.95;;;;;;;19.16;100.00;99230.13;1770150;81;25356;-59
2023/08/30 16:16:02;;;;;;;12.05;7.78;;;;;;;19.13;100.00;99224.64;1756287;81;25390;-60
2023/08/30 16:18:31;;;;;;;17.52;9.68;;;;;;;19.09;100.00;99226.02;1776184;80;25417;-60
2023/08/30 16:20:57;;;;;;;;;;;;;;;19.08;100.00;99226.41;1778898;80;25530;-60
2023/08/30 16:23:24;;;;;;;11.00;8.63;;;;;;;19.04;100.00;99223.08;1776242;80;27504;-61
2023/08/30 16:25:50;;;;;;;16.85;10.35;;;;;;;19.02;100.00;99227.40;1726391;81;25780;-63
2023/08/30 16:28:16;;;;;;;12.03;8.73;;;;;;;19.01;100.00;99229.33;1768918;81;25657;-63
2023/08/30 16:30:42;;;;;;;13.90;9.43;;;;;;;19.02;100.00;99232.28;1754702;81;25756;-61
2023/08/30 16:33:08;;;;;;;13.22;8.88;;;;;;;19.00;100.00;99227.79;1768810;81;25611;-63
2023/08/30 16:35:34;;;;;;;9.78;8.15;;;;;;;18.94;100.00;99230.71;1755002;81;29792;-63
2023/08/30 16:38:00;;;;;;;10.58;9.08;;;;;;;18.89;100.00;99235.21;1774939;80;25530;-60
2023/08/30 16:40:27;;;;;;;13.48;9.58;;;;;;;18.82;100.00;99227.77;1775022;80;25958;-60
2023/08/30 16:42:53;;;;;;;14.15;8.00;;;;;;;18.80;100.00;99236.17;1775726;80;25839;-62
2023/08/30 16:45:19;;;;;;;10.20;8.48;;;;;;;18.77;100.00;99238.31;1776279;80;25412;-60
2023/08/30 16:47:47;;;;;;;11.20;8.40;;;;;;;18.75;100.00;99226.97;1776226;80;27498;-60
2023/08/30 16:50:13;;;;;;;10.88;8.35;;;;;;;18.73;100.00;99236.14;1775982;79;25388;-59
2023/08/30 16:52:39;;;;;;;14.07;8.95;;;;;;;18.70;100.00;99239.09;1776239;80;25526;-60
2023/08/30 16:55:08;;;;;;;22.73;16.82;;;;;;;18.66;100.00;99243.19;1776169;80;25423;-61
2023/08/30 16:57:35;;;;;;;10.68;9.08;;;;;;;18.63;100.00;99248.07;1756222;81;25583;-60
2023/08/30 17:00:05;;;;;;;9.05;6.97;;;;;;;18.62;100.00;99245.72;1756124;81;27434;-59
2023/08/30 17:02:35;;;;;;;10.58;8.18;;;;;;;18.58;100.00;99247.67;1756063;81;25381;-60
2023/08/30 17:05:05;;;;;;;10.48;7.12;;;;;;;18.52;100.00;99248.63;1756229;81;25673;-59
2023/08/30 17:07:31;;;;;;;8.33;6.87;;;;;;;18.51;100.00;99251.75;1756169;81;25463;-59
2023/08/30 17:09:58;;;;;;;8.23;5.87;;;;;;;18.47;100.00;99248.44;1756139;81;25618;-59
2023/08/30 17:12:26;;;;;;;9.70;5.83;;;;;;;18.44;100.00;99242.96;1756040;81;27537;-59
2023/08/30 17:14:52;;;;;;;6.78;5.10;;;;;;;18.37;100.00;99242.92;1756102;81;25577;-59
2023/08/30 17:17:18;;;;;;;9.05;4.97;;;;;;;18.33;100.00;99236.66;1756123;81;25374;-60
2023/08/30 17:19:44;;;;;;;20.92;14.93;;;;;;;18.25;100.00;99235.84;1756048;81;25615;-62
2023/08/30 17:22:10;;;;;;;9.15;5.67;;;;;;;18.19;100.00;99225.87;1756178;81;25626;-63
2023/08/30 17:24:38;;;;;;;9.95;6.83;;;;;;;18.14;100.00;99224.09;1770227;81;28048;-65
2023/08/30 17:27:09;;;;;;;11.88;10.50;;;;;;;18.10;100.00;99220.76;1756097;81;25457;-62
2023/08/30 17:29:35;;;;;;;19.02;15.38;;;;;;;18.08;100.00;99220.93;1776263;80;25552;-61
2023/08/30 17:32:02;;;;;;;8.65;6.75;;;;;;;18.06;100.00;99217.21;1756036;81;27671;-63
2023/08/30 17:34:31;;;;;;;7.08;5.55;;;;;;;18.06;100.00;99210.37;1756209;81;25565;-59
2023/08/30 17:36:59;;;;;;;9.50;5.30;;;;;;;18.03;100.00;99201.59;1756303;81;27662;-59
2023/08/30 17:39:28;;;;;;;8.28;5.05;;;;;;;18.04;100.00;99201.77;1756210;81;25610;-58
2023/08/30 17:41:56;;;;;;;6.72;4.87;;;;;;;18.05;100.00;99199.84;1756396;81;25538;-58
2023/08/30 17:44:22;;;;;;;20.57;15.28;;;;;;;18.02;100.00;99196.50;1756261;81;27738;-59
2023/08/30 17:46:49;;;;;;;15.85;12.55;;;;;;;18.02;100.00;99202.75;1770475;81;25439;-59
2023/08/30 17:49:16;;;;;;;19.35;12.63;;;;;;;18.03;100.00;99202.95;1756408;80;27473;-58
2023/08/30 17:51:46;;;;;;;8.83;6.67;;;;;;;18.05;100.00;99209.41;1776009;80;25618;-57
2023/08/30 17:54:12;;;;;;;;;;;;;;;18.05;100.00;99212.92;1761887;81;25527;-59
2023/08/30 17:56:42;;;;;;;8.35;5.87;;;;;;;18.07;100.00;99214.69;1776011;80;25650;-59
2023/08/30 17:59:08;;;;;;;9.23;6.58;;;;;;;18.04;100.00;99215.45;1759313;81;25615;-59
2023/08/30 18:01:36;;;;;;;7.20;6.25;;;;;;;18.04;100.00;99224.25;1776076;80;27504;-59
2023/08/30 18:04:04;;;;;;;7.50;5.47;;;;;;;18.04;100.00;99218.78;1759116;81;25767;-60
2023/08/30 18:06:31;;;;;;;9.00;6.00;;;;;;;18.00;100.00;99223.47;1776060;80;25456;-60
2023/08/30 18:08:57;;;;;;;10.20;5.80;;;;;;;17.96;100.00;99218.55;1759102;81;25649;-62
2023/08/30 18:11:25;;;;;;;11.60;5.87;;;;;;;17.95;100.00;99217.00;1776128;80;25614;-60
2023/08/30 18:13:53;;;;;;;8.15;5.90;;;;;;;17.92;100.00;99222.64;1759286;81;27500;-59
2023/08/30 18:16:21;;;;;;;8.73;5.97;;;;;;;17.88;100.00;99218.52;1775936;80;25753;-61
2023/08/30 18:18:47;;;;;;;7.92;5.85;;;;;;;17.87;100.00;99222.41;1759183;81;25594;-56
2023/08/30 18:21:13;;;;;;;10.48;6.10;;;;;;;17.84;100.00;99223.74;1776042;80;26078;-48
2023/08/30 18:23:50;;;;;;;8.75;6.40;;;;;;;17.86;100.00;99217.30;1759290;81;25612;-48
2023/08/30 18:26:16;;;;;;;9.43;6.78;;;;;;;17.84;100.00;99220.45;1759806;80;28065;-49
2023/08/30 18:28:42;;;;;;;8.58;6.85;;;;;;;17.84;100.00;99221.81;1759155;81;25472;-49
2023/08/30 18:31:08;;;;;;;33.88;18.40;;;;;;;17.81;100.00;99222.57;1775984;80;25529;-48
2023/08/30 18:33:35;;;;;;;15.40;9.43;;;;;;;17.79;100.00;99222.74;1759224;81;25554;-51
2023/08/30 18:36:01;;;;;;;13.10;7.50;;;;;;;17.76;100.00;99216.10;1759304;81;25617;-51
2023/08/30 18:38:27;;;;;;;10.95;6.33;;;;;;;17.72;100.00;99212.55;1759206;81;27473;-53
2023/08/30 18:40:53;;;;;;;17.20;7.60;;;;;;;17.72;100.00;99216.65;1759056;81;25720;-49
2023/08/30 18:43:19;;;;;;;13.50;7.30;;;;;;;17.70;100.00;99219.77;1759274;81;25538;-49
2023/08/30 18:45:46;;;;;;;16.77;7.60;;;;;;;17.70;100.00;99228.56;1759036;81;25642;-49
2023/08/30 18:48:13;;;;;;;12.58;7.58;;;;;;;17.69;100.00;99226.98;1759274;81;25426;-51
2023/08/30 18:50:44;;;;;;;14.65;7.58;;;;;;;17.67;100.00;99226.02;1757559;81;27484;-50
2023/08/30 18:53:15;;;;;;;15.13;7.70;;;;;;;17.65;100.00;99232.44;1756195;81;25793;-50
2023/08/30 18:55:38;;;;;;;12.70;7.40;;;;;;;17.65;100.00;99241.23;1755961;81;25852;-49
2023/08/30 18:58:04;;;;;;;19.77;8.35;;;;;;;17.63;100.00;99240.84;1756219;81;25482;-50
2023/08/30 19:00:31;;;;;;;15.20;7.95;;;;;;;17.62;100.00;99240.63;1756240;81;25456;-52
2023/08/30 19:02:57;;;;;;;14.45;7.15;;;;;;;17.61;100.00;99240.44;1726757;81;27562;-50
2023/08/30 19:05:23;;;;;;;15.18;8.63;;;;;;;17.60;100.00;99236.13;1756244;81;25756;-50
2023/08/30 19:07:51;;;;;;;15.88;8.23;;;;;;;17.60;100.00;99238.86;1756302;81;25435;-50
2023/08/30 19:10:17;;;;;;;14.45;8.25;;;;;;;17.60;100.00;99239.63;1756131;81;25569;-50
2023/08/30 19:12:43;;;;;;;13.78;8.65;;;;;;;17.59;100.00;99249.58;1756267;81;25644;-50
2023/08/30 19:15:13;;;;;;;17.82;8.90;;;;;;;17.58;100.00;99252.13;1756203;81;28162;-52
2023/08/30 19:17:40;;;;;;;16.75;8.73;;;;;;;17.59;100.00;99263.25;1756213;81;25461;-51
2023/08/30 19:20:11;;;;;;;13.38;8.75;;;;;;;17.58;100.00;99258.97;1756245;81;25520;-51
2023/08/30 19:22:37;;;;;;;;;;;;;;;17.57;100.00;99258.19;1758824;81;26407;-54
2023/08/30 19:25:14;;;;;;;13.10;8.68;;;;;;;17.54;100.00;99266.56;1770336;81;25658;-51
2023/08/30 19:27:35;;;;;;;17.35;9.38;;;;;;;17.53;100.00;99271.03;1754332;81;27538;-51
2023/08/30 19:30:04;;;;;;;14.87;8.30;;;;;;;17.52;100.00;99272.19;1776163;80;25602;-51
2023/08/30 19:32:30;;;;;;;18.75;8.55;;;;;;;17.51;100.00;99285.08;1756299;81;25626;-53
2023/08/30 19:34:56;;;;;;;16.10;8.05;;;;;;;17.50;100.00;99280.80;1776351;80;25577;-51
2023/08/30 19:37:26;;;;;;;14.65;7.97;;;;;;;17.50;100.00;99286.27;1756317;81;25559;-54
2023/08/30 19:39:50;;;;;;;13.22;7.33;;;;;;;17.49;100.00;99288.78;1774968;80;27475;-51
2023/08/30 19:42:21;;;;;;;17.55;8.45;;;;;;;17.47;100.00;99290.31;1776264;80;25388;-51
2023/08/30 19:44:44;;;;;;;12.40;8.08;;;;;;;17.46;100.00;99293.64;1774770;80;25551;-51
2023/08/30 19:47:10;;;;;;;12.70;7.28;;;;;;;17.46;100.00;99298.33;1776277;80;25554;-53
2023/08/30 19:49:36;;;;;;;12.82;7.95;;;;;;;17.45;100.00;99300.29;1776214;80;25446;-51
2023/08/30 19:52:07;;;;;;;9.95;6.62;;;;;;;17.45;100.00;99307.13;1741873;80;26197;-50
2023/08/30 19:54:35;;;;;;;;;;;;;;;17.42;100.00;99303.78;1778838;80;25740;-51
2023/08/30 19:57:07;;;;;;;12.58;7.03;;;;;;;17.42;100.00;99307.87;1776236;80;25534;-50
2023/08/30 19:59:34;;;;;;;;;;;;;;;17.40;100.00;99305.30;1778858;79;25509;-52
2023/08/30 20:02:06;;;;;;;10.50;6.75;;;;;;;17.39;100.00;99302.39;1776304;80;25377;-54
2023/08/30 20:04:34;;;;;;;12.93;6.72;;;;;;;17.39;100.00;99307.26;1776362;80;27558;-52
2023/08/30 20:07:00;;;;;;;11.50;7.62;;;;;;;17.38;100.00;99307.05;1776229;80;25464;-50
2023/08/30 20:09:26;;;;;;;13.68;7.58;;;;;;;17.39;100.00;99311.36;1776282;79;25436;-52
2023/08/30 20:11:53;;;;;;;11.18;6.83;;;;;;;17.38;100.00;99302.95;1776263;79;25627;-51
2023/08/30 20:14:19;;;;;;;14.35;7.12;;;;;;;17.39;100.00;99306.48;1776419;79;25374;-53
2023/08/30 20:16:47;;;;;;;9.10;6.75;;;;;;;17.38;100.00;99307.05;1776232;80;29759;-54
2023/08/30 20:19:20;;;;;;;8.15;6.15;;;;;;;17.38;100.00;99311.14;1776208;80;25496;-53
2023/08/30 20:21:50;;;;;;;11.40;6.40;;;;;;;17.38;100.00;99309.78;1776314;80;25544;-54
2023/08/30 20:24:18;;;;;;;15.93;8.58;;;;;;;17.39;100.00;99313.32;1776185;80;25582;-55
2023/08/30 20:26:49;;;;;;;;;;;;;;;17.39;100.00;99321.52;1778981;80;25492;-52
2023/08/30 20:29:15;;;;;;;13.88;8.55;;;;;;;17.39;100.00;99325.03;1776402;80;28603;-53
2023/08/30 20:31:41;;;;;;;11.08;7.28;;;;;;;17.35;100.00;99315.44;1776214;79;25563;-53
2023/08/30 20:34:09;;;;;;;12.73;7.50;;;;;;;17.34;100.00;99309.75;1776300;80;25437;-52
2023/08/30 20:36:37;;;;;;;14.28;8.80;;;;;;;17.34;100.00;99304.88;1776258;80;25649;-51
2023/08/30 20:39:07;;;;;;;12.30;7.85;;;;;;;17.35;100.00;99309.20;1776266;80;25538;-53
2023/08/30 20:41:34;;;;;;;58.83;47.95;;;;;;;17.35;100.00;99301.77;1776217;80;27520;-51
2023/08/30 20:44:01;;;;;;;18.80;10.03;;;;;;;17.36;100.00;99301.95;1776196;80;25457;-57
2023/08/30 20:46:29;;;;;;;17.77;9.03;;;;;;;17.36;100.00;99305.28;1776276;79;25615;-53
2023/08/30 20:48:58;;;;;;;21.48;9.18;;;;;;;17.34;100.00;99303.52;1776254;80;25733;-53
2023/08/30 20:51:25;;;;;;;14.75;8.73;;;;;;;17.34;100.00;99311.12;1784939;80;25551;-53
2023/08/30 20:53:51;;;;;;;17.55;12.05;;;;;;;17.34;100.00;99318.55;1761817;81;27549;-54
2023/08/30 20:56:17;;;;;;;14.85;9.20;;;;;;;17.33;100.00;99318.33;1793038;78;25684;-51
2023/08/30 20:58:49;;;;;;;12.10;8.35;;;;;;;17.31;100.00;99313.83;1761720;81;25429;-52
2023/08/30 21:01:17;;;;;;;14.53;9.18;;;;;;;17.29;100.00;99316.94;1793148;80;25561;-50
2023/08/30 21:03:46;;;;;;;13.70;9.55;;;;;;;17.29;100.00;99310.11;1761988;81;32309;-54
2023/08/30 21:06:14;;;;;;;17.00;9.80;;;;;;;17.30;100.00;99312.27;1793107;80;28093;-52
2023/08/30 21:08:41;;;;;;;16.55;9.35;;;;;;;17.29;100.00;99308.73;1761736;81;25399;-53
2023/08/30 21:11:12;;;;;;;18.80;10.88;;;;;;;17.32;100.00;99314.82;1793220;80;25372;-51
2023/08/30 21:13:38;;;;;;;17.73;10.10;;;;;;;17.32;100.00;99320.28;1761929;81;25604;-52
2023/08/30 21:16:07;;;;;;;16.17;9.63;;;;;;;17.30;100.00;99319.11;1793328;80;25629;-54
2023/08/30 21:18:33;;;;;;;14.35;9.23;;;;;;;17.32;100.00;99322.24;1752865;80;27486;-51
2023/08/30 21:21:00;;;;;;;16.45;9.35;;;;;;;17.31;100.00;99328.86;1761789;81;25695;-54
2023/08/30 21:23:29;;;;;;;19.73;11.30;;;;;;;17.33;100.00;99330.63;1762006;81;25619;-53
2023/08/30 21:25:55;;;;;;;16.07;9.48;;;;;;;17.32;100.00;99324.97;1742680;82;25675;-57
2023/08/30 21:28:21;;;;;;;22.13;10.30;;;;;;;17.32;100.00;99319.51;1762022;81;25452;-56
2023/08/30 21:30:48;;;;;;;14.53;9.13;;;;;;;17.32;100.00;99314.82;1761999;81;27512;-55
2023/08/30 21:33:22;;;;;;;12.68;9.18;;;;;;;17.32;100.00;99323.61;1761925;81;25575;-56
2023/08/30 21:35:51;;;;;;;12.30;8.75;;;;;;;17.33;100.00;99325.16;1761339;81;25393;-57
2023/08/30 21:38:17;;;;;;;14.00;9.65;;;;;;;17.32;100.00;99329.08;1729093;83;25696;-57
2023/08/30 21:40:46;;;;;;;19.57;11.33;;;;;;;17.32;100.00;99319.51;1761774;81;25565;-55
2023/08/30 21:43:16;;;;;;;22.35;15.55;;;;;;;17.32;100.00;99324.39;1761460;81;27459;-56
2023/08/30 21:45:44;;;;;;;28.47;17.67;;;;;;;17.31;100.00;99317.34;1761875;81;25456;-58
2023/08/30 21:48:14;;;;;;;20.27;11.70;;;;;;;17.32;100.00;99315.41;1762124;81;25534;-57